Time;durP1;ratioP1;P1;durP2;ratioP2;P2;SDS_P1;SDS_P2;PMS_P1;PMS_P2;Temp;Humidity;BMP_temperature;BMP_pressure;BME280_temperature;BME280_humidity;BME280_pressure;Samples;Min_cycle;Max_cycle;Signal;HPM_P1;HPM_P2
2022/06/21 00:00:05;;;;;;;7.13;4.13;;;13.70;99.90;;;;;;2087174;28;20475;-68
2022/06/21 00:01:12;;;;;;;6.82;4.65;;;13.60;99.90;;;;;;2087612;28;20025;-69
2022/06/21 00:02:14;;;;;;;7.80;4.50;;;13.70;99.90;;;;;;2088183;28;20398;-69
2022/06/21 00:03:22;;;;;;;5.97;4.00;;;13.60;99.90;;;;;;2088130;28;20033;-69
2022/06/21 00:04:22;;;;;;;8.00;4.40;;;13.60;99.90;;;;;;2088080;28;20094;-68
2022/06/21 00:05:34;;;;;;;7.32;4.10;;;13.60;99.90;;;;;;2079181;28;20025;-68
2022/06/21 00:06:34;;;;;;;6.97;4.25;;;13.60;99.90;;;;;;2080856;28;20037;-69
2022/06/21 00:07:35;;;;;;;6.80;4.28;;;13.60;99.90;;;;;;2088123;28;20104;-69
2022/06/21 00:08:36;;;;;;;6.78;4.22;;;13.60;99.90;;;;;;2088254;28;20499;-68
2022/06/21 00:09:37;;;;;;;5.88;3.95;;;13.50;99.90;;;;;;2088311;28;20032;-69
2022/06/21 00:10:38;;;;;;;6.53;4.40;;;13.50;99.90;;;;;;2087515;28;20048;-68
2022/06/21 00:11:39;;;;;;;7.03;3.85;;;13.50;99.90;;;;;;2087503;28;20582;-68
2022/06/21 00:12:40;;;;;;;5.65;4.55;;;13.50;99.90;;;;;;2087408;28;20029;-68
2022/06/21 00:13:41;;;;;;;7.68;4.70;;;13.50;99.90;;;;;;2087413;28;20028;-68
2022/06/21 00:14:42;;;;;;;6.38;4.57;;;13.50;99.90;;;;;;2087735;28;20020;-69
2022/06/21 00:15:44;;;;;;;7.75;4.90;;;13.50;99.90;;;;;;2087796;28;20037;-67
2022/06/21 00:16:45;;;;;;;7.78;4.80;;;13.50;99.90;;;;;;2088033;28;20029;-68
2022/06/21 00:17:48;;;;;;;9.82;4.70;;;13.40;99.90;;;;;;2088116;28;20395;-68
2022/06/21 00:18:49;;;;;;;8.45;4.40;;;13.40;99.90;;;;;;2087832;28;20074;-67
2022/06/21 00:19:51;;;;;;;7.20;4.35;;;13.40;99.90;;;;;;2088053;28;20060;-68
2022/06/21 00:20:53;;;;;;;8.75;4.72;;;13.40;99.90;;;;;;2087955;28;20060;-69
2022/06/21 00:21:53;;;;;;;6.53;4.18;;;13.50;99.90;;;;;;2087938;28;20471;-68
2022/06/21 00:22:54;;;;;;;7.05;4.30;;;13.40;99.90;;;;;;2087919;28;20021;-70
2022/06/21 00:23:55;;;;;;;6.47;4.10;;;13.40;99.90;;;;;;2087952;28;20031;-68
2022/06/21 00:24:55;;;;;;;7.53;4.50;;;13.40;99.90;;;;;;2087977;28;20562;-69
2022/06/21 00:25:56;;;;;;;5.50;4.10;;;13.40;99.90;;;;;;2087524;28;20033;-68
2022/06/21 00:26:57;;;;;;;7.15;4.35;;;13.40;99.90;;;;;;2087145;28;20104;-67
2022/06/21 00:27:57;;;;;;;6.10;4.55;;;13.40;99.90;;;;;;2087947;28;20513;-70
2022/06/21 00:28:59;;;;;;;5.88;4.70;;;13.40;99.90;;;;;;2087068;28;20120;-68
2022/06/21 00:29:59;;;;;;;7.05;4.22;;;13.40;99.90;;;;;;2087250;28;20079;-68
2022/06/21 00:31:00;;;;;;;7.32;4.90;;;13.30;99.90;;;;;;2087968;28;20202;-68
2022/06/21 00:32:00;;;;;;;5.57;4.63;;;13.30;99.90;;;;;;2087946;28;20029;-68
2022/06/21 00:33:01;;;;;;;7.72;4.57;;;13.30;99.90;;;;;;2087882;28;20075;-67
2022/06/21 00:34:12;;;;;;;6.55;4.40;;;13.30;99.90;;;;;;2087858;28;20510;-68
2022/06/21 00:35:16;;;;;;;6.57;4.20;;;13.30;99.90;;;;;;2087027;28;20080;-67
2022/06/21 00:36:24;;;;;;;5.55;4.10;;;13.30;99.90;;;;;;2087171;28;20132;-68
2022/06/21 00:37:25;;;;;;;7.05;4.75;;;13.30;99.90;;;;;;2087971;28;20025;-68
2022/06/21 00:38:30;;;;;;;5.97;4.30;;;13.30;99.90;;;;;;2086874;28;20035;-68
2022/06/21 00:39:30;;;;;;;8.60;4.60;;;13.20;99.90;;;;;;2087439;28;20029;-68
2022/06/21 00:40:33;;;;;;;10.25;4.40;;;13.20;99.90;;;;;;2087124;28;20084;-70
2022/06/21 00:42:01;;;;;;;5.82;4.50;;;13.20;99.90;;;;;;2087365;28;20163;-68
2022/06/21 00:43:24;;;;;;;7.32;4.65;;;13.20;99.90;;;;;;2087518;28;20033;-68
2022/06/21 00:44:41;;;;;;;7.15;4.30;;;13.20;99.90;;;;;;2087567;28;20060;-68
2022/06/21 00:45:45;;;;;;;7.57;4.38;;;13.20;99.90;;;;;;2087557;28;20029;-68
2022/06/21 00:46:51;;;;;;;6.38;4.00;;;13.10;99.90;;;;;;2079589;28;20067;-69
2022/06/21 00:47:55;;;;;;;7.25;4.60;;;13.10;99.90;;;;;;2087319;28;20029;-68
2022/06/21 00:48:56;;;;;;;10.60;4.93;;;13.10;99.90;;;;;;2086858;28;20037;-69
2022/06/21 00:50:01;;;;;;;7.38;4.93;;;13.10;99.90;;;;;;2078791;28;20033;-67
2022/06/21 00:51:18;;;;;;;7.72;4.65;;;13.10;99.90;;;;;;2087251;28;20570;-70
2022/06/21 00:52:26;;;;;;;8.57;4.53;;;13.10;99.90;;;;;;2087877;28;20029;-67
2022/06/21 00:53:43;;;;;;;4.97;4.30;;;13.10;99.90;;;;;;2087961;28;20028;-69
2022/06/21 00:54:56;;;;;;;8.43;4.95;;;13.10;99.90;;;;;;2087034;28;20399;-67
2022/06/21 00:56:13;;;;;;;7.13;4.80;;;13.10;99.90;;;;;;2087187;28;20087;-67
2022/06/21 00:57:17;;;;;;;12.30;4.80;;;13.10;99.90;;;;;;2078818;28;20484;-67
2022/06/21 00:58:20;;;;;;;8.43;4.80;;;13.10;99.90;;;;;;2079325;28;20044;-69
2022/06/21 00:59:38;;;;;;;5.55;4.45;;;13.10;99.90;;;;;;2087170;28;20116;-70
2022/06/21 01:01:03;;;;;;;8.13;4.80;;;13.00;99.90;;;;;;2089576;28;20079;-69
2022/06/21 01:02:20;;;;;;;8.13;4.57;;;13.00;99.90;;;;;;2092414;28;20021;-69
2022/06/21 01:03:26;;;;;;;8.90;5.20;;;13.00;99.90;;;;;;2087736;28;20048;-67
2022/06/21 01:04:34;;;;;;;7.50;4.50;;;13.00;99.90;;;;;;2087718;28;20029;-67
2022/06/21 01:05:39;;;;;;;9.27;5.05;;;13.00;99.90;;;;;;2086970;28;20517;-69
2022/06/21 01:06:46;;;;;;;7.53;5.03;;;13.00;99.90;;;;;;2087015;28;20033;-69
2022/06/21 01:07:46;;;;;;;10.35;4.90;;;13.00;99.90;;;;;;2087822;28;20059;-67
2022/06/21 01:08:52;;;;;;;7.32;4.75;;;13.00;99.90;;;;;;2087453;28;20056;-69
2022/06/21 01:10:07;;;;;;;6.32;4.65;;;13.00;99.90;;;;;;2087740;28;20073;-70
2022/06/21 01:11:18;;;;;;;8.93;5.03;;;13.00;99.90;;;;;;2086954;28;20035;-69
2022/06/21 01:12:45;;;;;;;7.57;4.75;;;12.90;99.90;;;;;;2080210;28;20037;-70
2022/06/21 01:13:50;;;;;;;5.50;4.47;;;12.90;99.90;;;;;;2079900;28;20037;-69
2022/06/21 01:14:58;;;;;;;7.43;4.45;;;12.90;99.90;;;;;;2086955;28;20453;-69
2022/06/21 01:15:59;;;;;;;8.35;5.07;;;12.90;99.90;;;;;;2087584;28;20039;-69
2022/06/21 01:17:01;;;;;;;7.22;4.70;;;12.90;99.90;;;;;;2087723;28;20388;-69
2022/06/21 01:18:06;;;;;;;7.05;4.70;;;12.80;99.90;;;;;;2087796;28;20028;-67
2022/06/21 01:19:22;;;;;;;8.65;4.88;;;12.90;99.90;;;;;;2087453;28;20758;-69
2022/06/21 01:20:26;;;;;;;6.50;4.80;;;12.90;99.90;;;;;;2078773;28;20488;-71
2022/06/21 01:21:29;;;;;;;8.52;4.95;;;12.80;99.90;;;;;;2071323;28;20034;-69
2022/06/21 01:22:37;;;;;;;6.93;4.90;;;12.80;99.90;;;;;;2087234;28;20029;-69
2022/06/21 01:23:51;;;;;;;7.20;4.55;;;12.80;99.90;;;;;;2078787;28;20026;-70
2022/06/21 01:25:11;;;;;;;10.07;5.35;;;12.80;99.90;;;;;;2080698;28;20083;-69
2022/06/21 01:26:42;;;;;;;9.10;5.30;;;12.80;99.90;;;;;;2087599;28;20087;-69
2022/06/21 01:27:44;;;;;;;8.15;4.90;;;12.80;99.90;;;;;;2087619;28;20048;-70
2022/06/21 01:28:45;;;;;;;7.18;4.60;;;12.80;99.90;;;;;;2087315;28;20040;-69
2022/06/21 01:29:47;;;;;;;7.50;4.60;;;12.80;99.90;;;;;;2087662;28;20039;-69
2022/06/21 01:30:51;;;;;;;6.75;4.80;;;12.80;99.90;;;;;;2086868;28;20083;-69
2022/06/21 01:31:55;;;;;;;6.82;4.78;;;12.80;99.90;;;;;;2087102;28;20033;-69
2022/06/21 01:32:59;;;;;;;6.15;4.80;;;12.70;99.90;;;;;;2087676;28;20488;-67
2022/06/21 01:34:00;;;;;;;7.47;4.68;;;12.70;99.90;;;;;;2087464;28;20040;-69
2022/06/21 01:35:05;;;;;;;8.57;5.10;;;12.70;99.90;;;;;;2086966;28;20052;-70
2022/06/21 01:36:15;;;;;;;6.50;4.53;;;12.70;99.90;;;;;;2087083;28;20286;-70
2022/06/21 01:37:20;;;;;;;7.43;4.93;;;12.70;99.90;;;;;;2087815;28;20037;-69
2022/06/21 01:38:25;;;;;;;7.93;4.80;;;12.70;99.90;;;;;;2089159;28;20033;-70
2022/06/21 01:39:38;;;;;;;6.63;4.80;;;12.70;99.90;;;;;;2089499;28;20079;-69
2022/06/21 01:40:44;;;;;;;6.43;4.63;;;12.70;99.90;;;;;;2088716;28;20737;-68
2022/06/21 01:42:01;;;;;;;9.95;4.70;;;12.70;99.90;;;;;;2073099;28;20029;-69
2022/06/21 01:43:07;;;;;;;6.05;4.88;;;12.70;99.90;;;;;;2084929;28;20086;-70
2022/06/21 01:44:13;;;;;;;7.05;5.40;;;12.70;99.90;;;;;;2096333;28;20030;-69
2022/06/21 01:45:19;;;;;;;7.93;5.50;;;12.70;99.90;;;;;;2088615;28;20067;-68
2022/06/21 01:46:26;;;;;;;9.95;5.30;;;12.60;99.90;;;;;;2080958;28;20033;-69
2022/06/21 01:47:39;;;;;;;7.18;4.63;;;12.60;99.90;;;;;;2081153;28;20053;-69
2022/06/21 01:48:48;;;;;;;6.82;4.78;;;12.60;99.90;;;;;;2073673;28;20577;-70
2022/06/21 01:50:00;;;;;;;8.52;5.47;;;12.60;99.90;;;;;;2081724;28;20037;-70
2022/06/21 01:51:13;;;;;;;9.00;5.50;;;12.60;99.90;;;;;;2089920;28;20036;-68
2022/06/21 01:52:26;;;;;;;8.75;5.40;;;12.60;99.90;;;;;;2090214;28;20114;-67
2022/06/21 01:53:27;;;;;;;9.85;5.75;;;12.60;99.90;;;;;;2089696;28;20039;-68
2022/06/21 01:54:35;;;;;;;7.88;5.20;;;12.60;99.90;;;;;;2089919;28;20742;-68
2022/06/21 01:55:39;;;;;;;8.32;4.82;;;12.60;99.90;;;;;;2091293;28;20075;-68
2022/06/21 01:56:41;;;;;;;7.15;5.35;;;12.60;99.90;;;;;;2091020;28;20061;-69
2022/06/21 01:57:41;;;;;;;7.10;4.75;;;12.60;99.90;;;;;;2090876;28;20029;-67
2022/06/21 01:58:52;;;;;;;8.07;4.88;;;12.60;99.90;;;;;;2090156;28;20089;-68
2022/06/21 01:59:53;;;;;;;8.50;4.82;;;12.60;99.90;;;;;;2090454;28;20033;-68
2022/06/21 02:00:57;;;;;;;7.60;5.10;;;12.60;99.90;;;;;;2089117;28;20025;-67
2022/06/21 02:02:01;;;;;;;6.97;5.60;;;12.60;99.90;;;;;;2089106;28;20499;-68
2022/06/21 02:03:11;;;;;;;9.57;5.65;;;12.60;99.90;;;;;;2089143;28;20086;-68
2022/06/21 02:04:17;;;;;;;8.68;5.13;;;12.50;99.90;;;;;;2088525;28;20028;-68
2022/06/21 02:05:35;;;;;;;7.97;5.32;;;12.50;99.90;;;;;;2088400;28;20037;-68
2022/06/21 02:06:41;;;;;;;9.90;5.78;;;12.50;99.90;;;;;;2089135;28;20077;-67
2022/06/21 02:07:49;;;;;;;7.90;5.28;;;12.50;99.90;;;;;;2088361;28;20071;-68
2022/06/21 02:09:01;;;;;;;9.25;5.68;;;12.50;99.90;;;;;;2088332;28;20033;-68
2022/06/21 02:10:14;;;;;;;8.73;6.10;;;12.50;99.90;;;;;;2088323;28;20114;-68
2022/06/21 02:11:38;;;;;;;8.90;5.60;;;12.50;99.90;;;;;;2088721;28;20091;-69
2022/06/21 02:12:48;;;;;;;9.15;5.78;;;12.50;99.90;;;;;;2088910;28;20041;-68
2022/06/21 02:15:35;;;;;;;7.88;5.00;;;12.40;99.90;;;;;;2083971;28;20086;-68
2022/06/21 02:16:39;;;;;;;8.52;5.55;;;12.40;99.90;;;;;;2088582;28;20037;-68
2022/06/21 02:17:43;;;;;;;7.22;5.38;;;12.40;99.90;;;;;;2088932;28;20017;-68
2022/06/21 02:18:52;;;;;;;8.25;5.40;;;12.40;99.90;;;;;;2088552;28;20036;-68
2022/06/21 02:20:02;;;;;;;8.77;5.05;;;12.40;99.90;;;;;;2088989;28;20028;-67
2022/06/21 02:21:02;;;;;;;7.72;5.38;;;12.40;99.90;;;;;;2089116;28;20023;-67
2022/06/21 02:22:03;;;;;;;8.63;5.22;;;12.40;99.90;;;;;;2089146;28;20519;-68
2022/06/21 02:23:05;;;;;;;6.20;5.03;;;12.40;99.90;;;;;;2089094;28;20047;-68
2022/06/21 02:24:12;;;;;;;6.97;5.07;;;12.40;99.90;;;;;;2089038;28;20037;-66
2022/06/21 02:25:19;;;;;;;8.80;5.38;;;12.40;99.90;;;;;;2089004;28;20031;-67
2022/06/21 02:26:23;;;;;;;7.00;4.65;;;12.40;99.90;;;;;;2089077;28;20115;-67
2022/06/21 02:27:28;;;;;;;7.57;5.00;;;12.40;99.90;;;;;;2088873;28;20021;-68
2022/06/21 02:28:28;;;;;;;6.55;4.78;;;12.40;99.90;;;;;;2088055;28;20032;-67
2022/06/21 02:29:30;;;;;;;5.75;4.68;;;12.40;99.90;;;;;;2088337;28;20040;-68
2022/06/21 02:30:31;;;;;;;7.10;5.20;;;12.40;99.90;;;;;;2088868;28;20033;-67
2022/06/21 02:31:32;;;;;;;7.63;4.90;;;12.40;99.90;;;;;;2089121;28;20021;-67
2022/06/21 02:32:36;;;;;;;5.95;4.95;;;12.40;99.90;;;;;;2088847;28;20029;-67
2022/06/21 02:33:38;;;;;;;9.80;5.70;;;12.30;99.90;;;;;;2088221;28;20037;-67
2022/06/21 02:34:40;;;;;;;9.02;5.68;;;12.30;99.90;;;;;;2088184;28;20024;-66
2022/06/21 02:35:52;;;;;;;8.57;5.55;;;12.30;99.90;;;;;;2088953;28;20032;-67
2022/06/21 02:36:57;;;;;;;10.35;5.53;;;12.30;99.90;;;;;;2089240;28;20040;-66
2022/06/21 02:38:02;;;;;;;10.38;5.50;;;12.30;99.90;;;;;;2088837;28;20458;-68
2022/06/21 02:39:06;;;;;;;7.38;5.50;;;12.30;99.90;;;;;;2088711;28;20121;-67
2022/06/21 02:40:15;;;;;;;9.13;5.68;;;12.30;99.90;;;;;;2088837;28;20531;-67
2022/06/21 02:41:22;;;;;;;10.25;5.32;;;12.30;99.90;;;;;;2088830;28;20017;-68
2022/06/21 02:42:29;;;;;;;9.45;5.22;;;12.30;99.90;;;;;;2089099;28;20040;-68
2022/06/21 02:43:39;;;;;;;8.18;5.28;;;12.30;99.90;;;;;;2088472;28;20020;-67
2022/06/21 02:44:52;;;;;;;9.18;5.47;;;12.30;99.90;;;;;;2088596;28;20070;-68
2022/06/21 02:46:08;;;;;;;8.40;5.35;;;12.30;99.90;;;;;;2088988;28;20052;-68
2022/06/21 02:47:18;;;;;;;7.13;5.55;;;12.30;99.90;;;;;;2088082;28;20145;-69
2022/06/21 02:48:24;;;;;;;7.75;5.45;;;12.30;99.90;;;;;;2088243;28;20033;-67
2022/06/21 02:49:50;;;;;;;6.57;5.10;;;12.30;99.90;;;;;;2089058;28;20066;-69
2022/06/21 02:50:56;;;;;;;8.75;5.40;;;12.30;99.90;;;;;;2088941;28;20060;-68
2022/06/21 02:52:04;;;;;;;9.00;5.35;;;12.20;99.90;;;;;;2088771;28;20033;-68
2022/06/21 02:53:14;;;;;;;8.45;5.47;;;12.20;99.90;;;;;;2088799;28;20052;-68
2022/06/21 02:54:23;;;;;;;8.18;5.30;;;12.20;99.90;;;;;;2088525;28;20057;-69
2022/06/21 02:55:35;;;;;;;6.80;5.00;;;12.20;99.90;;;;;;2088803;28;20017;-68
2022/06/21 02:56:45;;;;;;;7.82;5.20;;;12.20;99.90;;;;;;2088591;28;20446;-67
2022/06/21 02:57:54;;;;;;;9.25;5.20;;;12.30;99.90;;;;;;2088818;28;20554;-67
2022/06/21 02:58:58;;;;;;;6.35;5.00;;;12.20;99.90;;;;;;2088407;28;20102;-67
2022/06/21 03:00:03;;;;;;;7.35;4.97;;;12.20;99.90;;;;;;2088545;28;20037;-68
2022/06/21 03:01:10;;;;;;;7.30;4.88;;;12.20;99.90;;;;;;2088423;28;20032;-68
2022/06/21 03:02:14;;;;;;;7.93;5.05;;;12.20;99.90;;;;;;2088722;28;20080;-68
2022/06/21 03:03:22;;;;;;;6.47;5.03;;;12.20;99.90;;;;;;2088590;28;20488;-68
2022/06/21 03:04:55;;;;;;;6.82;4.85;;;12.20;99.90;;;;;;2088817;28;20036;-68
2022/06/21 03:05:59;;;;;;;7.18;5.00;;;12.20;99.90;;;;;;2088859;28;20017;-68
2022/06/21 03:07:02;;;;;;;6.85;5.00;;;12.20;99.90;;;;;;2088708;28;20025;-68
2022/06/21 03:08:05;;;;;;;7.00;4.93;;;12.20;99.90;;;;;;2088775;28;20040;-68
2022/06/21 03:09:11;;;;;;;8.27;5.50;;;12.20;99.90;;;;;;2088499;28;20036;-68
2022/06/21 03:10:23;;;;;;;7.32;5.38;;;12.20;99.90;;;;;;2088506;28;20017;-68
2022/06/21 03:11:28;;;;;;;8.68;5.00;;;12.20;99.90;;;;;;2088631;28;20025;-67
2022/06/21 03:12:32;;;;;;;10.80;5.22;;;12.20;99.90;;;;;;2088472;28;20021;-69
2022/06/21 03:13:34;;;;;;;7.85;5.13;;;12.30;99.90;;;;;;2088334;28;20032;-69
2022/06/21 03:14:37;;;;;;;8.18;5.00;;;12.30;99.90;;;;;;2088512;28;20031;-68
2022/06/21 03:15:39;;;;;;;8.38;5.53;;;12.30;99.90;;;;;;2088429;28;20025;-68
2022/06/21 03:16:42;;;;;;;7.45;5.20;;;12.30;99.90;;;;;;2088532;28;20395;-68
2022/06/21 03:17:51;;;;;;;9.48;5.47;;;12.30;99.90;;;;;;2088624;28;20021;-68
2022/06/21 03:18:56;;;;;;;7.70;5.10;;;12.30;99.90;;;;;;2088450;28;20444;-68
2022/06/21 03:19:57;;;;;;;6.93;4.80;;;12.30;99.90;;;;;;2088447;28;20051;-68
2022/06/21 03:21:00;;;;;;;6.18;4.80;;;12.40;99.90;;;;;;2087918;28;20021;-68
2022/06/21 03:22:03;;;;;;;6.20;4.80;;;12.40;99.90;;;;;;2088076;28;20029;-68
2022/06/21 03:23:05;;;;;;;7.97;5.20;;;12.40;99.90;;;;;;2088704;28;20033;-68
2022/06/21 03:24:15;;;;;;;6.18;4.60;;;12.40;99.90;;;;;;2088677;28;20049;-69
2022/06/21 03:25:43;;;;;;;7.25;4.82;;;12.40;99.90;;;;;;2088571;28;20781;-69
2022/06/21 03:26:50;;;;;;;8.02;5.10;;;12.40;99.90;;;;;;2095092;28;20028;-67
2022/06/21 03:27:59;;;;;;;7.32;5.10;;;12.40;99.90;;;;;;2095516;28;20024;-68
2022/06/21 03:29:00;;;;;;;6.97;5.10;;;12.50;99.90;;;;;;2088305;28;20029;-69
2022/06/21 03:30:01;;;;;;;9.60;5.57;;;12.50;99.90;;;;;;2088285;28;20449;-67
2022/06/21 03:31:20;;;;;;;9.15;5.03;;;12.50;99.90;;;;;;2088226;28;20466;-67
2022/06/21 03:32:21;;;;;;;8.82;4.97;;;12.50;99.90;;;;;;2087768;28;20067;-68
2022/06/21 03:33:22;;;;;;;7.05;5.13;;;12.50;99.90;;;;;;2079684;28;20550;-68
2022/06/21 03:34:24;;;;;;;5.82;4.88;;;12.60;99.90;;;;;;2087759;28;20021;-67
2022/06/21 03:35:29;;;;;;;6.38;4.85;;;12.60;99.90;;;;;;2087665;28;20036;-68
2022/06/21 03:36:30;;;;;;;7.75;4.90;;;12.70;99.90;;;;;;2087872;28;20024;-67
2022/06/21 03:37:30;;;;;;;5.18;4.50;;;12.70;99.90;;;;;;2088484;28;20491;-69
2022/06/21 03:38:31;;;;;;;6.82;4.90;;;12.70;99.90;;;;;;2088277;28;20025;-68
2022/06/21 03:42:14;;;;;;;6.75;5.07;;;12.90;99.90;;;;;;2088297;28;20025;-68
2022/06/21 03:43:29;;;;;;;6.75;4.88;;;12.90;99.90;;;;;;2087455;28;20025;-68
2022/06/21 03:44:39;;;;;;;8.27;5.28;;;13.00;99.90;;;;;;2081298;28;20029;-68
2022/06/21 03:45:43;;;;;;;7.30;5.00;;;13.00;99.90;;;;;;2087671;28;20021;-67
2022/06/21 03:46:55;;;;;;;7.63;5.20;;;13.00;99.90;;;;;;2088273;28;20521;-68
2022/06/21 03:48:16;;;;;;;7.57;4.88;;;13.00;99.90;;;;;;2088304;28;20024;-68
2022/06/21 03:49:31;;;;;;;8.32;4.68;;;13.00;99.90;;;;;;2095199;28;20068;-68
2022/06/21 03:50:40;;;;;;;7.78;4.68;;;13.00;99.90;;;;;;2094130;28;20054;-68
2022/06/21 03:51:44;;;;;;;8.13;4.70;;;12.90;99.90;;;;;;2087665;28;20091;-68
2022/06/21 03:53:06;;;;;;;7.75;4.32;;;12.90;99.90;;;;;;2087481;28;20083;-68
2022/06/21 03:54:17;;;;;;;5.93;4.50;;;12.90;99.90;;;;;;2087623;28;20121;-67
2022/06/21 03:55:42;;;;;;;5.45;4.22;;;12.90;99.90;;;;;;2088998;28;20067;-68
2022/06/21 03:56:58;;;;;;;8.73;4.50;;;12.90;99.90;;;;;;2092607;28;20040;-68
2022/06/21 03:58:06;;;;;;;6.93;4.35;;;12.90;99.90;;;;;;2088265;28;20100;-68
2022/06/21 03:59:07;;;;;;;8.10;5.00;;;12.90;99.90;;;;;;2087983;28;20029;-68
2022/06/21 04:00:12;;;;;;;8.52;4.78;;;12.80;99.90;;;;;;2087509;28;20053;-69
2022/06/21 04:01:19;;;;;;;6.53;4.50;;;12.80;99.90;;;;;;2087099;28;20033;-68
2022/06/21 04:02:27;;;;;;;10.68;5.07;;;12.80;99.90;;;;;;2087565;28;20062;-67
2022/06/21 04:03:35;;;;;;;8.23;4.57;;;12.90;99.90;;;;;;2088161;28;20102;-68
2022/06/21 04:05:01;;;;;;;6.95;4.70;;;12.90;99.90;;;;;;2087275;28;20124;-68
2022/06/21 04:06:27;;;;;;;8.43;5.10;;;13.00;99.90;;;;;;2082678;28;20499;-67
2022/06/21 04:07:32;;;;;;;8.55;5.25;;;13.00;99.90;;;;;;2087690;28;20039;-68
2022/06/21 04:09:07;;;;;;;7.43;4.78;;;13.00;99.90;;;;;;2087420;28;20030;-68
2022/06/21 04:10:24;;;;;;;6.78;4.90;;;13.10;99.90;;;;;;2082588;28;20037;-68
2022/06/21 04:11:36;;;;;;;6.63;4.50;;;13.50;99.90;;;;;;2087779;28;20013;-69
2022/06/21 04:12:36;;;;;;;8.07;4.68;;;13.80;99.90;;;;;;2088358;28;20021;-68
2022/06/21 04:13:41;;;;;;;5.50;3.72;;;14.30;99.90;;;;;;2087747;28;20048;-69
2022/06/21 04:15:01;;;;;;;6.85;4.00;;;14.80;99.90;;;;;;2087834;28;20020;-69
2022/06/21 04:16:14;;;;;;;6.43;4.00;;;15.40;99.90;;;;;;2087489;28;20511;-69
2022/06/21 04:18:00;;;;;;;5.88;3.35;;;15.80;99.90;;;;;;2087886;28;20033;-68
2022/06/21 04:19:10;;;;;;;8.65;3.72;;;16.40;99.90;;;;;;2086614;28;20567;-69
2022/06/21 04:20:25;;;;;;;5.20;3.38;;;16.90;99.90;;;;;;2088044;28;20067;-69
2022/06/21 04:21:49;;;;;;;4.55;3.13;;;17.40;99.90;;;;;;2088062;28;20120;-69
2022/06/21 04:23:08;;;;;;;5.32;3.60;;;17.70;99.90;;;;;;2087429;28;20033;-70
2022/06/21 04:24:22;;;;;;;6.70;3.08;;;17.90;99.90;;;;;;2081555;28;20452;-68
2022/06/21 04:25:29;;;;;;;5.88;3.30;;;17.80;99.90;;;;;;2087244;28;20036;-69
2022/06/21 04:26:34;;;;;;;4.57;2.88;;;17.80;99.90;;;;;;2087145;28;20029;-69
2022/06/21 04:27:44;;;;;;;9.20;3.40;;;18.00;99.90;;;;;;2087447;28;20032;-69
2022/06/21 04:28:56;;;;;;;6.38;2.80;;;18.20;99.90;;;;;;2087223;28;20053;-69
2022/06/21 04:30:05;;;;;;;7.05;3.30;;;18.40;99.90;;;;;;2087475;28;20067;-69
2022/06/21 04:31:21;;;;;;;6.68;3.50;;;18.60;99.90;;;;;;2087268;28;20716;-69
2022/06/21 04:32:31;;;;;;;7.10;3.17;;;18.70;99.60;;;;;;2087628;28;20096;-69
2022/06/21 04:34:07;;;;;;;;;;;18.90;99.30;;;;;;2088021;28;20043;-68
2022/06/21 04:35:21;;;;;;;5.28;2.92;;;18.80;98.20;;;;;;2083250;28;19935;-70
2022/06/21 04:36:45;;;;;;;7.90;3.10;;;19.00;97.90;;;;;;2086897;28;20056;-68
2022/06/21 04:37:52;;;;;;;7.45;3.10;;;18.90;97.30;;;;;;2084446;28;20789;-68
2022/06/21 04:38:59;;;;;;;5.93;2.97;;;19.00;97.00;;;;;;2086746;28;20470;-68
2022/06/21 04:40:06;;;;;;;6.65;3.10;;;18.90;96.40;;;;;;2087720;28;20021;-68
2022/06/21 04:41:31;;;;;;;7.53;2.92;;;18.70;97.10;;;;;;2087958;28;20111;-68
2022/06/21 04:42:56;;;;;;;7.28;3.08;;;19.00;96.20;;;;;;2087908;28;20028;-68
2022/06/21 04:44:03;;;;;;;8.07;2.80;;;19.00;95.60;;;;;;2088010;28;20039;-68
2022/06/21 04:45:17;;;;;;;6.75;2.92;;;19.10;95.80;;;;;;2087932;28;20041;-68
2022/06/21 04:46:20;;;;;;;7.47;3.00;;;19.00;96.10;;;;;;2087862;28;20111;-68
2022/06/21 04:47:48;;;;;;;6.43;2.85;;;19.00;95.50;;;;;;2087941;28;20070;-68
2022/06/21 04:48:59;;;;;;;7.25;3.08;;;18.90;95.60;;;;;;2087042;28;20122;-68
2022/06/21 04:50:13;;;;;;;10.88;3.53;;;19.10;95.60;;;;;;2087418;28;20036;-68
2022/06/21 04:51:16;;;;;;;8.27;3.30;;;19.00;95.70;;;;;;2088122;28;20032;-68
2022/06/21 04:52:28;;;;;;;7.28;3.42;;;18.80;95.80;;;;;;2088053;28;20037;-68
2022/06/21 04:53:49;;;;;;;8.30;2.60;;;18.80;96.20;;;;;;2087131;28;20078;-67
2022/06/21 04:54:50;;;;;;;5.30;2.70;;;19.00;96.00;;;;;;2081653;28;20465;-68
2022/06/21 04:56:20;;;;;;;7.93;2.92;;;19.60;94.50;;;;;;2087219;28;20044;-68
2022/06/21 04:57:24;;;;;;;5.38;2.50;;;19.40;94.00;;;;;;2087274;28;20037;-68
2022/06/21 04:58:25;;;;;;;7.03;3.15;;;19.80;93.90;;;;;;2086955;28;20013;-69
2022/06/21 04:59:28;;;;;;;6.28;2.70;;;19.90;93.50;;;;;;2088046;28;20078;-68
2022/06/21 05:00:29;;;;;;;4.95;2.80;;;19.70;93.00;;;;;;2088054;28;20053;-68
2022/06/21 05:01:30;;;;;;;7.90;3.05;;;19.60;93.30;;;;;;2088180;28;20074;-68
2022/06/21 05:02:36;;;;;;;8.63;3.00;;;19.70;92.50;;;;;;2088347;28;20104;-68
2022/06/21 05:03:42;;;;;;;6.45;2.90;;;19.90;91.80;;;;;;2087969;28;20025;-68
2022/06/21 05:04:45;;;;;;;5.22;2.90;;;19.90;91.80;;;;;;2089079;28;20079;-68
2022/06/21 05:05:47;;;;;;;7.35;3.05;;;20.00;91.00;;;;;;2088526;28;20032;-68
2022/06/21 05:06:49;;;;;;;7.22;3.03;;;19.50;91.50;;;;;;2088602;28;20028;-68
2022/06/21 05:08:15;;;;;;;8.80;3.13;;;19.20;92.20;;;;;;2089432;28;20032;-68
2022/06/21 05:09:19;;;;;;;7.55;2.45;;;18.60;94.00;;;;;;2088809;28;20036;-68
2022/06/21 05:10:27;;;;;;;8.20;2.80;;;18.90;94.50;;;;;;2088891;28;20025;-68
2022/06/21 05:11:28;;;;;;;10.98;2.70;;;19.00;94.10;;;;;;2088464;28;20056;-68
2022/06/21 05:12:36;;;;;;;5.25;2.63;;;19.20;94.10;;;;;;2087416;28;20079;-68
2022/06/21 05:13:41;;;;;;;8.77;3.00;;;19.60;93.60;;;;;;2087538;28;20512;-68
2022/06/21 05:14:47;;;;;;;8.07;3.10;;;19.90;92.80;;;;;;2088621;28;20078;-68
2022/06/21 05:15:48;;;;;;;8.00;3.58;;;19.70;92.20;;;;;;2088037;28;20418;-68
2022/06/21 05:16:52;;;;;;;6.10;2.80;;;19.70;92.90;;;;;;2088149;28;20056;-68
2022/06/21 05:17:57;;;;;;;6.20;2.70;;;20.10;92.20;;;;;;2087412;28;20036;-68
2022/06/21 05:19:08;;;;;;;4.38;2.20;;;20.50;90.90;;;;;;2087458;28;20103;-68
2022/06/21 05:20:32;;;;;;;6.25;3.00;;;20.90;89.70;;;;;;2078909;28;20047;-68
2022/06/21 05:21:45;;;;;;;7.40;2.97;;;20.90;87.50;;;;;;2082311;28;20039;-68
2022/06/21 05:22:51;;;;;;;9.57;3.00;;;20.40;88.70;;;;;;2088103;28;20720;-68
2022/06/21 05:23:51;;;;;;;5.05;2.60;;;20.40;89.40;;;;;;2087977;28;20028;-69
2022/06/21 05:24:54;;;;;;;6.68;2.55;;;20.60;88.70;;;;;;2087692;28;20065;-69
2022/06/21 05:25:59;;;;;;;5.60;2.78;;;20.90;87.90;;;;;;2087752;28;20021;-68
2022/06/21 05:27:08;;;;;;;4.55;2.33;;;21.00;87.20;;;;;;2087623;28;20024;-68
2022/06/21 05:28:38;;;;;;;6.43;2.47;;;21.30;86.00;;;;;;2087085;28;20037;-69
2022/06/21 05:30:08;;;;;;;6.18;3.50;;;21.50;84.40;;;;;;2087308;28;20502;-69
2022/06/21 05:31:23;;;;;;;6.82;2.95;;;21.60;83.40;;;;;;2087631;28;20686;-69
2022/06/21 05:32:36;;;;;;;9.63;3.10;;;21.60;80.80;;;;;;2086969;28;20037;-69
2022/06/21 05:33:46;;;;;;;7.45;3.03;;;21.30;81.30;;;;;;2086916;28;20040;-69
2022/06/21 05:34:52;;;;;;;7.60;2.90;;;21.00;81.90;;;;;;2087569;28;20036;-68
2022/06/21 05:35:52;;;;;;;9.13;3.28;;;21.00;82.40;;;;;;2087542;28;20036;-68
2022/06/21 05:37:04;;;;;;;5.95;2.65;;;21.00;82.10;;;;;;2087545;28;20500;-68
2022/06/21 05:38:11;;;;;;;5.40;2.45;;;20.80;82.70;;;;;;2087754;28;20064;-68
2022/06/21 05:39:20;;;;;;;8.00;2.80;;;21.10;82.90;;;;;;2087445;28;20078;-69
2022/06/21 05:40:39;;;;;;;8.95;3.20;;;21.20;82.70;;;;;;2087646;28;20021;-69
2022/06/21 05:41:43;;;;;;;5.88;2.60;;;21.10;82.10;;;;;;2087785;28;20021;-69
2022/06/21 05:42:44;;;;;;;5.30;2.60;;;21.30;82.70;;;;;;2087553;28;20555;-68
2022/06/21 05:43:49;;;;;;;6.85;2.80;;;21.40;83.00;;;;;;2087599;28;20032;-70
2022/06/21 05:44:53;;;;;;;6.15;2.67;;;21.60;82.20;;;;;;2087481;28;20035;-69
2022/06/21 05:45:59;;;;;;;11.30;3.42;;;21.60;82.00;;;;;;2087540;28;20018;-68
2022/06/21 05:47:28;;;;;;;8.80;3.22;;;20.70;82.50;;;;;;2087454;28;20417;-68
2022/06/21 05:48:32;;;;;;;9.18;3.15;;;20.30;86.30;;;;;;2086589;28;20039;-68
2022/06/21 05:49:36;;;;;;;7.82;2.97;;;20.60;86.30;;;;;;2086958;28;20021;-68
2022/06/21 05:50:37;;;;;;;7.00;3.10;;;20.50;86.10;;;;;;2087510;28;20527;-69
2022/06/21 05:51:37;;;;;;;8.30;3.13;;;20.40;87.90;;;;;;2087500;28;20039;-68
2022/06/21 05:52:49;;;;;;;7.50;3.13;;;20.30;87.50;;;;;;2087466;28;20460;-68
2022/06/21 05:53:53;;;;;;;11.15;3.50;;;20.30;87.40;;;;;;2087327;28;20037;-68
2022/06/21 05:55:08;;;;;;;8.70;2.80;;;20.20;89.10;;;;;;2086662;28;20083;-68
2022/06/21 05:56:16;;;;;;;9.02;3.20;;;20.20;89.30;;;;;;2086948;28;20029;-68
2022/06/21 05:57:23;;;;;;;6.50;2.70;;;19.90;89.50;;;;;;2087506;28;20036;-68
2022/06/21 05:58:32;;;;;;;9.93;3.60;;;19.90;90.40;;;;;;2086737;28;20063;-68